TimeCST,TemperatureF,Dew PointF,Humidity,Sea Level PressureIn,VisibilityMPH,Wind Direction,Wind SpeedMPH,Gust SpeedMPH,PrecipitationIn,Events,Conditions,WindDirDegrees,DateUTC
12:14 AM,19.4,10.4,68,30.27,10.0,SSW,6.9,-,N/A,,Clear,200,2012-11-27 06:14:00
12:34 AM,19.4,10.4,68,30.27,10.0,South,6.9,-,N/A,,Clear,190,2012-11-27 06:34:00
12:53 AM,19.4,10.4,68,30.26,10.0,SSW,5.8,-,N/A,,Clear,200,2012-11-27 06:53:00
1:13 AM,19.4,10.4,68,30.25,10.0,South,5.8,-,N/A,,Clear,190,2012-11-27 07:13:00
1:54 AM,21.2,12.2,68,30.23,10.0,South,5.8,-,N/A,,Clear,190,2012-11-27 07:54:00
2:14 AM,19.4,12.2,74,30.23,10.0,SSW,5.8,-,N/A,,Clear,210,2012-11-27 08:14:00
2:34 AM,21.2,14.0,74,30.23,10.0,SW,5.8,-,N/A,,Clear,220,2012-11-27 08:34:00
2:53 AM,23.0,14.0,68,30.22,10.0,SW,6.9,-,N/A,,Clear,220,2012-11-27 08:53:00
3:13 AM,21.2,14.0,74,30.22,10.0,SSW,4.6,-,N/A,,Clear,200,2012-11-27 09:13:00
3:33 AM,21.2,14.0,74,30.20,10.0,SW,4.6,-,N/A,,Clear,220,2012-11-27 09:33:00
3:54 AM,23.0,14.0,68,30.19,10.0,SSW,6.9,-,N/A,,Clear,200,2012-11-27 09:54:00
4:13 AM,23.0,15.8,74,30.18,10.0,South,4.6,-,N/A,,Clear,180,2012-11-27 10:13:00
4:33 AM,21.2,14.0,74,30.17,10.0,SSE,3.5,-,N/A,,Clear,150,2012-11-27 10:33:00
4:53 AM,21.2,14.0,74,30.17,10.0,South,4.6,-,N/A,,Clear,170,2012-11-27 10:53:00
5:13 AM,21.2,15.8,80,30.16,10.0,South,5.8,-,N/A,,Clear,180,2012-11-27 11:13:00
5:34 AM,21.2,15.8,80,30.15,10.0,South,5.8,-,N/A,,Clear,170,2012-11-27 11:34:00
6:33 AM,24.8,17.6,74,30.13,10.0,SSW,4.6,-,N/A,,Scattered Clouds,200,2012-11-27 12:33:00
6:53 AM,23.0,17.6,80,30.13,10.0,South,3.5,-,N/A,,Clear,190,2012-11-27 12:53:00
7:13 AM,23.0,17.6,80,30.13,10.0,Calm,Calm,-,N/A,,Clear,0,2012-11-27 13:13:00
7:33 AM,23.0,17.6,80,30.12,10.0,South,3.5,-,N/A,,Clear,190,2012-11-27 13:33:00
7:53 AM,17.6,15.8,93,30.12,10.0,Calm,Calm,-,N/A,,Clear,0,2012-11-27 13:53:00
8:13 AM,19.4,17.6,93,30.12,10.0,South,3.5,-,N/A,,Clear,180,2012-11-27 14:13:00
8:34 AM,21.2,17.6,86,30.12,10.0,South,3.5,-,N/A,,Clear,190,2012-11-27 14:34:00
8:53 AM,26.6,21.2,80,30.12,10.0,SSW,5.8,-,N/A,,Clear,210,2012-11-27 14:53:00
9:33 AM,28.4,21.2,74,30.12,10.0,SSW,6.9,-,N/A,,Clear,200,2012-11-27 15:33:00
9:53 AM,30.2,21.2,69,30.11,10.0,SW,9.2,-,N/A,,Clear,220,2012-11-27 15:53:00
10:13 AM,32.0,21.2,64,30.12,10.0,SW,9.2,-,N/A,,Clear,230,2012-11-27 16:13:00
10:33 AM,33.8,21.2,60,30.11,10.0,WSW,9.2,-,N/A,,Clear,250,2012-11-27 16:33:00
10:53 AM,33.8,21.2,60,30.11,10.0,WSW,8.1,-,N/A,,Clear,250,2012-11-27 16:53:00
11:13 AM,35.6,21.2,56,30.11,10.0,West,9.2,-,N/A,,Clear,270,2012-11-27 17:13:00
11:34 AM,35.6,21.2,56,30.10,10.0,WSW,6.9,-,N/A,,Clear,250,2012-11-27 17:34:00
11:53 AM,35.6,23.0,60,30.10,10.0,WSW,9.2,-,N/A,,Clear,250,2012-11-27 17:53:00
12:13 PM,37.4,23.0,56,30.09,10.0,West,6.9,-,N/A,,Clear,280,2012-11-27 18:13:00
12:33 PM,37.4,23.0,56,30.08,10.0,WNW,5.8,-,N/A,,Clear,300,2012-11-27 18:33:00
12:53 PM,39.2,23.0,52,30.08,10.0,NW,10.4,-,N/A,,Clear,310,2012-11-27 18:53:00
1:13 PM,39.2,23.0,52,30.08,10.0,NW,10.4,-,N/A,,Clear,320,2012-11-27 19:13:00
1:33 PM,37.4,23.0,56,30.08,10.0,NW,11.5,-,N/A,,Clear,320,2012-11-27 19:33:00
1:53 PM,37.4,24.8,60,30.09,10.0,NNW,13.8,-,N/A,,Clear,330,2012-11-27 19:53:00
2:14 PM,37.4,24.8,60,30.09,10.0,NNW,11.5,-,N/A,,Clear,330,2012-11-27 20:14:00
2:33 PM,37.4,23.0,56,30.09,10.0,NW,12.7,-,N/A,,Clear,320,2012-11-27 20:33:00
2:53 PM,37.4,24.8,60,30.10,10.0,NW,10.4,-,N/A,,Clear,320,2012-11-27 20:53:00
3:14 PM,37.4,24.8,60,30.10,10.0,NW,12.7,-,N/A,,Clear,320,2012-11-27 21:14:00
3:33 PM,37.4,23.0,56,30.11,10.0,NW,11.5,-,N/A,,Clear,320,2012-11-27 21:33:00
3:53 PM,35.6,23.0,60,30.12,10.0,NNW,10.4,-,N/A,,Clear,330,2012-11-27 21:53:00
4:13 PM,35.6,21.2,56,30.13,10.0,North,9.2,-,N/A,,Clear,350,2012-11-27 22:13:00
4:33 PM,30.2,21.2,69,30.14,10.0,NNW,6.9,-,N/A,,Clear,340,2012-11-27 22:33:00
4:54 PM,28.4,21.2,74,30.15,10.0,North,6.9,-,N/A,,Clear,350,2012-11-27 22:54:00
5:13 PM,26.6,19.4,74,30.16,10.0,NNW,4.6,-,N/A,,Clear,340,2012-11-27 23:13:00
5:33 PM,26.6,19.4,74,30.16,10.0,NNW,6.9,-,N/A,,Clear,330,2012-11-27 23:33:00
5:48 PM,26.6,19.4,74,30.17,10.0,NNW,3.5,-,N/A,,Clear,330,2012-11-27 23:48:00
5:55 PM,26.6,19.4,74,30.17,10.0,North,4.6,-,N/A,,Clear,350,2012-11-27 23:55:00
6:11 PM,24.8,19.4,80,30.18,10.0,NNW,4.6,-,N/A,,Clear,330,2012-11-28 00:11:00
6:33 PM,24.8,19.4,80,30.19,10.0,NNW,5.8,-,N/A,,Clear,340,2012-11-28 00:33:00
6:53 PM,24.8,19.4,80,30.19,10.0,North,5.8,-,N/A,,Clear,350,2012-11-28 00:53:00
7:13 PM,23.0,19.4,86,30.20,10.0,NNW,4.6,-,N/A,,Clear,340,2012-11-28 01:13:00
7:33 PM,21.2,19.4,93,30.21,10.0,NNW,5.8,-,N/A,,Clear,340,2012-11-28 01:33:00
7:53 PM,19.4,17.6,93,30.21,10.0,Calm,Calm,-,N/A,,Clear,0,2012-11-28 01:53:00
8:13 PM,19.4,17.6,93,30.22,10.0,NW,3.5,-,N/A,,Clear,320,2012-11-28 02:13:00
8:33 PM,21.2,19.4,93,30.23,10.0,NW,3.5,-,N/A,,Clear,320,2012-11-28 02:33:00
8:54 PM,15.8,12.2,86,30.24,10.0,West,4.6,-,N/A,,Clear,280,2012-11-28 02:54:00
9:13 PM,17.6,15.8,93,30.25,10.0,West,4.6,-,N/A,,Scattered Clouds,280,2012-11-28 03:13:00
9:34 PM,19.4,17.6,93,30.26,10.0,WNW,4.6,-,N/A,,Overcast,300,2012-11-28 03:34:00
9:53 PM,19.4,17.6,93,30.26,10.0,WNW,5.8,-,N/A,,Overcast,290,2012-11-28 03:53:00
10:14 PM,21.2,19.4,93,30.26,10.0,WNW,4.6,-,N/A,,Overcast,300,2012-11-28 04:14:00
10:33 PM,21.2,19.4,93,30.26,10.0,Calm,Calm,-,N/A,,Overcast,0,2012-11-28 04:33:00
10:54 PM,21.2,19.4,93,30.26,10.0,West,3.5,-,N/A,,Overcast,270,2012-11-28 04:54:00
11:33 PM,23.0,21.2,93,30.27,10.0,West,3.5,-,N/A,,Overcast,280,2012-11-28 05:33:00
11:54 PM,23.0,19.4,86,30.27,10.0,West,3.5,-,N/A,,Overcast,270,2012-11-28 05:54:00